sensor_id;sensor_type;location;lat;lon;timestamp;P1;durP1;ratioP1;P2;durP2;ratioP2
11510;SDS011;5812;48.864;9.190;2022-07-01T00:02:24;1.03;;;1.03;;
11510;SDS011;5812;48.864;9.190;2022-07-01T00:04:50;1.23;;;1.23;;
11510;SDS011;5812;48.864;9.190;2022-07-01T00:07:16;1.03;;;1.03;;
11510;SDS011;5812;48.864;9.190;2022-07-01T00:09:42;1.20;;;1.20;;
11510;SDS011;5812;48.864;9.190;2022-07-01T00:12:08;1.00;;;1.00;;
11510;SDS011;5812;48.864;9.190;2022-07-01T00:14:33;0.70;;;0.70;;
11510;SDS011;5812;48.864;9.190;2022-07-01T00:16:59;1.17;;;1.17;;
11510;SDS011;5812;48.864;9.190;2022-07-01T00:19:25;1.00;;;1.00;;
11510;SDS011;5812;48.864;9.190;2022-07-01T00:21:51;0.80;;;0.80;;
11510;SDS011;5812;48.864;9.190;2022-07-01T00:24:17;1.00;;;1.00;;
11510;SDS011;5812;48.864;9.190;2022-07-01T00:26:42;0.90;;;0.90;;
11510;SDS011;5812;48.864;9.190;2022-07-01T00:29:08;0.83;;;0.83;;
11510;SDS011;5812;48.864;9.190;2022-07-01T00:31:34;1.10;;;1.10;;
11510;SDS011;5812;48.864;9.190;2022-07-01T00:34:00;0.70;;;0.70;;
11510;SDS011;5812;48.864;9.190;2022-07-01T00:36:26;0.90;;;0.90;;
11510;SDS011;5812;48.864;9.190;2022-07-01T00:38:52;0.73;;;0.73;;
11510;SDS011;5812;48.864;9.190;2022-07-01T00:41:17;0.80;;;0.80;;
11510;SDS011;5812;48.864;9.190;2022-07-01T00:43:43;1.10;;;1.10;;
11510;SDS011;5812;48.864;9.190;2022-07-01T00:46:08;0.90;;;0.90;;
11510;SDS011;5812;48.864;9.190;2022-07-01T00:48:34;0.80;;;0.80;;
11510;SDS011;5812;48.864;9.190;2022-07-01T00:51:02;0.90;;;0.90;;
11510;SDS011;5812;48.864;9.190;2022-07-01T00:53:28;0.83;;;0.83;;
11510;SDS011;5812;48.864;9.190;2022-07-01T00:55:54;0.77;;;0.77;;
11510;SDS011;5812;48.864;9.190;2022-07-01T00:58:20;0.70;;;0.70;;
11510;SDS011;5812;48.864;9.190;2022-07-01T01:00:46;0.77;;;0.77;;
11510;SDS011;5812;48.864;9.190;2022-07-01T01:03:12;0.73;;;0.73;;
11510;SDS011;5812;48.864;9.190;2022-07-01T01:05:37;1.00;;;1.00;;
11510;SDS011;5812;48.864;9.190;2022-07-01T01:08:05;1.00;;;1.00;;
11510;SDS011;5812;48.864;9.190;2022-07-01T01:10:33;1.00;;;1.00;;
11510;SDS011;5812;48.864;9.190;2022-07-01T01:13:01;0.97;;;0.97;;
11510;SDS011;5812;48.864;9.190;2022-07-01T01:15:29;1.20;;;1.20;;
11510;SDS011;5812;48.864;9.190;2022-07-01T01:17:55;0.80;;;0.80;;
11510;SDS011;5812;48.864;9.190;2022-07-01T01:20:21;1.03;;;1.03;;
11510;SDS011;5812;48.864;9.190;2022-07-01T01:22:47;0.97;;;0.97;;
11510;SDS011;5812;48.864;9.190;2022-07-01T01:25:13;1.00;;;1.00;;
11510;SDS011;5812;48.864;9.190;2022-07-01T01:27:39;1.00;;;1.00;;
11510;SDS011;5812;48.864;9.190;2022-07-01T01:30:06;1.00;;;1.00;;
11510;SDS011;5812;48.864;9.190;2022-07-01T01:32:33;0.90;;;0.90;;
11510;SDS011;5812;48.864;9.190;2022-07-01T01:34:59;0.80;;;0.80;;
11510;SDS011;5812;48.864;9.190;2022-07-01T01:37:25;0.70;;;0.70;;
11510;SDS011;5812;48.864;9.190;2022-07-01T01:39:52;0.90;;;0.90;;
11510;SDS011;5812;48.864;9.190;2022-07-01T01:42:18;0.73;;;0.73;;
11510;SDS011;5812;48.864;9.190;2022-07-01T01:44:44;0.80;;;0.80;;
11510;SDS011;5812;48.864;9.190;2022-07-01T01:47:10;0.90;;;0.90;;
11510;SDS011;5812;48.864;9.190;2022-07-01T01:49:35;0.67;;;0.67;;
11510;SDS011;5812;48.864;9.190;2022-07-01T01:52:01;0.87;;;0.87;;
11510;SDS011;5812;48.864;9.190;2022-07-01T01:54:27;0.77;;;0.77;;
11510;SDS011;5812;48.864;9.190;2022-07-01T01:56:52;1.10;;;1.10;;
11510;SDS011;5812;48.864;9.190;2022-07-01T01:59:18;0.90;;;0.90;;
11510;SDS011;5812;48.864;9.190;2022-07-01T02:01:44;1.07;;;1.07;;
11510;SDS011;5812;48.864;9.190;2022-07-01T02:04:09;1.13;;;1.13;;
11510;SDS011;5812;48.864;9.190;2022-07-01T02:06:35;1.07;;;1.07;;
11510;SDS011;5812;48.864;9.190;2022-07-01T02:09:01;1.00;;;1.00;;
11510;SDS011;5812;48.864;9.190;2022-07-01T02:11:27;1.17;;;1.17;;
11510;SDS011;5812;48.864;9.190;2022-07-01T02:13:53;1.00;;;1.00;;
11510;SDS011;5812;48.864;9.190;2022-07-01T02:16:18;1.20;;;1.20;;
11510;SDS011;5812;48.864;9.190;2022-07-01T02:18:44;1.50;;;1.50;;
11510;SDS011;5812;48.864;9.190;2022-07-01T02:21:09;1.33;;;1.33;;
11510;SDS011;5812;48.864;9.190;2022-07-01T02:23:35;1.27;;;1.27;;
11510;SDS011;5812;48.864;9.190;2022-07-01T02:26:01;1.57;;;1.57;;
11510;SDS011;5812;48.864;9.190;2022-07-01T02:28:27;1.03;;;1.03;;
11510;SDS011;5812;48.864;9.190;2022-07-01T02:30:53;1.00;;;1.00;;
11510;SDS011;5812;48.864;9.190;2022-07-01T02:33:18;1.47;;;1.47;;
11510;SDS011;5812;48.864;9.190;2022-07-01T02:35:44;1.17;;;1.17;;
11510;SDS011;5812;48.864;9.190;2022-07-01T02:38:10;1.73;;;1.73;;
11510;SDS011;5812;48.864;9.190;2022-07-01T02:40:36;1.20;;;1.20;;
11510;SDS011;5812;48.864;9.190;2022-07-01T02:43:05;1.30;;;1.30;;
11510;SDS011;5812;48.864;9.190;2022-07-01T02:45:32;1.30;;;1.30;;
11510;SDS011;5812;48.864;9.190;2022-07-01T02:47:57;1.67;;;1.67;;
11510;SDS011;5812;48.864;9.190;2022-07-01T02:50:23;1.40;;;1.40;;
11510;SDS011;5812;48.864;9.190;2022-07-01T02:52:49;1.30;;;1.30;;
11510;SDS011;5812;48.864;9.190;2022-07-01T02:55:14;1.37;;;1.37;;
11510;SDS011;5812;48.864;9.190;2022-07-01T02:57:40;1.20;;;1.20;;
11510;SDS011;5812;48.864;9.190;2022-07-01T03:00:08;1.30;;;1.30;;
11510;SDS011;5812;48.864;9.190;2022-07-01T03:02:35;1.37;;;1.37;;
11510;SDS011;5812;48.864;9.190;2022-07-01T03:05:01;0.83;;;0.83;;
11510;SDS011;5812;48.864;9.190;2022-07-01T03:07:27;1.10;;;1.10;;
11510;SDS011;5812;48.864;9.190;2022-07-01T03:09:54;1.30;;;1.30;;
11510;SDS011;5812;48.864;9.190;2022-07-01T03:12:19;1.07;;;1.07;;
11510;SDS011;5812;48.864;9.190;2022-07-01T03:14:56;0.90;;;0.90;;
11510;SDS011;5812;48.864;9.190;2022-07-01T03:17:24;1.10;;;1.10;;
11510;SDS011;5812;48.864;9.190;2022-07-01T03:19:51;1.37;;;1.37;;
11510;SDS011;5812;48.864;9.190;2022-07-01T03:22:18;1.33;;;1.33;;
11510;SDS011;5812;48.864;9.190;2022-07-01T03:24:45;1.70;;;1.70;;
11510;SDS011;5812;48.864;9.190;2022-07-01T03:27:11;1.23;;;1.23;;
11510;SDS011;5812;48.864;9.190;2022-07-01T03:29:37;1.33;;;1.33;;
11510;SDS011;5812;48.864;9.190;2022-07-01T03:32:03;1.30;;;1.30;;
11510;SDS011;5812;48.864;9.190;2022-07-01T03:34:28;1.33;;;1.33;;
11510;SDS011;5812;48.864;9.190;2022-07-01T03:36:54;1.43;;;1.43;;
11510;SDS011;5812;48.864;9.190;2022-07-01T03:39:20;1.30;;;1.30;;
11510;SDS011;5812;48.864;9.190;2022-07-01T03:41:45;1.93;;;1.93;;
11510;SDS011;5812;48.864;9.190;2022-07-01T03:44:11;1.60;;;1.60;;
11510;SDS011;5812;48.864;9.190;2022-07-01T03:46:37;1.53;;;1.53;;
11510;SDS011;5812;48.864;9.190;2022-07-01T03:49:02;1.87;;;1.87;;
11510;SDS011;5812;48.864;9.190;2022-07-01T03:51:29;1.80;;;1.80;;
11510;SDS011;5812;48.864;9.190;2022-07-01T03:53:55;1.73;;;1.73;;
11510;SDS011;5812;48.864;9.190;2022-07-01T03:56:39;1.73;;;1.73;;
11510;SDS011;5812;48.864;9.190;2022-07-01T03:59:04;1.60;;;1.60;;
11510;SDS011;5812;48.864;9.190;2022-07-01T04:01:30;1.50;;;1.50;;
11510;SDS011;5812;48.864;9.190;2022-07-01T04:03:56;1.73;;;1.73;;
11510;SDS011;5812;48.864;9.190;2022-07-01T04:06:21;1.50;;;1.50;;
11510;SDS011;5812;48.864;9.190;2022-07-01T04:08:47;1.50;;;1.50;;
11510;SDS011;5812;48.864;9.190;2022-07-01T04:11:15;1.73;;;1.73;;
11510;SDS011;5812;48.864;9.190;2022-07-01T04:13:42;1.80;;;1.80;;
11510;SDS011;5812;48.864;9.190;2022-07-01T04:16:18;2.10;;;2.10;;
11510;SDS011;5812;48.864;9.190;2022-07-01T04:18:45;1.80;;;1.80;;
11510;SDS011;5812;48.864;9.190;2022-07-01T04:21:11;2.23;;;2.23;;
11510;SDS011;5812;48.864;9.190;2022-07-01T04:23:55;2.43;;;2.43;;
11510;SDS011;5812;48.864;9.190;2022-07-01T04:26:22;1.93;;;1.93;;
11510;SDS011;5812;48.864;9.190;2022-07-01T04:28:48;2.47;;;2.47;;
11510;SDS011;5812;48.864;9.190;2022-07-01T04:31:14;2.20;;;2.20;;
11510;SDS011;5812;48.864;9.190;2022-07-01T04:33:39;2.07;;;2.07;;
11510;SDS011;5812;48.864;9.190;2022-07-01T04:36:05;2.33;;;2.33;;
11510;SDS011;5812;48.864;9.190;2022-07-01T04:38:31;2.30;;;2.30;;
11510;SDS011;5812;48.864;9.190;2022-07-01T04:40:56;2.10;;;2.10;;
11510;SDS011;5812;48.864;9.190;2022-07-01T04:43:40;2.00;;;2.00;;
11510;SDS011;5812;48.864;9.190;2022-07-01T04:46:06;2.90;;;2.90;;
11510;SDS011;5812;48.864;9.190;2022-07-01T04:48:32;2.70;;;2.70;;
11510;SDS011;5812;48.864;9.190;2022-07-01T04:50:58;2.50;;;2.50;;
11510;SDS011;5812;48.864;9.190;2022-07-01T04:53:23;2.30;;;2.30;;
11510;SDS011;5812;48.864;9.190;2022-07-01T04:55:49;2.80;;;2.80;;
11510;SDS011;5812;48.864;9.190;2022-07-01T04:58:15;2.87;;;2.87;;
11510;SDS011;5812;48.864;9.190;2022-07-01T05:00:40;2.70;;;2.70;;
11510;SDS011;5812;48.864;9.190;2022-07-01T05:03:06;3.57;;;3.57;;
11510;SDS011;5812;48.864;9.190;2022-07-01T05:05:31;2.83;;;2.83;;
11510;SDS011;5812;48.864;9.190;2022-07-01T05:07:57;2.97;;;2.97;;
11510;SDS011;5812;48.864;9.190;2022-07-01T05:10:22;2.80;;;2.80;;
11510;SDS011;5812;48.864;9.190;2022-07-01T05:12:48;2.67;;;2.67;;
11510;SDS011;5812;48.864;9.190;2022-07-01T05:15:14;3.27;;;3.27;;
11510;SDS011;5812;48.864;9.190;2022-07-01T05:17:40;3.00;;;3.00;;
11510;SDS011;5812;48.864;9.190;2022-07-01T05:20:24;2.33;;;2.33;;
11510;SDS011;5812;48.864;9.190;2022-07-01T05:23:08;2.17;;;2.17;;
11510;SDS011;5812;48.864;9.190;2022-07-01T05:25:33;3.50;;;3.50;;
11510;SDS011;5812;48.864;9.190;2022-07-01T05:27:59;3.37;;;3.37;;
11510;SDS011;5812;48.864;9.190;2022-07-01T05:30:24;3.33;;;3.33;;
11510;SDS011;5812;48.864;9.190;2022-07-01T05:32:50;3.37;;;3.37;;
11510;SDS011;5812;48.864;9.190;2022-07-01T05:35:16;3.30;;;3.30;;
11510;SDS011;5812;48.864;9.190;2022-07-01T05:37:41;3.63;;;3.63;;
11510;SDS011;5812;48.864;9.190;2022-07-01T05:40:07;3.20;;;3.20;;
11510;SDS011;5812;48.864;9.190;2022-07-01T05:42:33;2.90;;;2.90;;
11510;SDS011;5812;48.864;9.190;2022-07-01T05:44:59;2.70;;;2.70;;
11510;SDS011;5812;48.864;9.190;2022-07-01T05:47:24;2.63;;;2.63;;
11510;SDS011;5812;48.864;9.190;2022-07-01T05:49:50;2.17;;;2.17;;
11510;SDS011;5812;48.864;9.190;2022-07-01T05:52:16;2.47;;;2.47;;
11510;SDS011;5812;48.864;9.190;2022-07-01T05:54:41;2.60;;;2.60;;
11510;SDS011;5812;48.864;9.190;2022-07-01T05:57:07;2.17;;;2.17;;
11510;SDS011;5812;48.864;9.190;2022-07-01T05:59:33;2.10;;;2.10;;
11510;SDS011;5812;48.864;9.190;2022-07-01T06:01:58;2.40;;;2.40;;
11510;SDS011;5812;48.864;9.190;2022-07-01T06:04:24;2.67;;;2.67;;
11510;SDS011;5812;48.864;9.190;2022-07-01T06:06:49;2.33;;;2.33;;
11510;SDS011;5812;48.864;9.190;2022-07-01T06:09:15;2.00;;;2.00;;
11510;SDS011;5812;48.864;9.190;2022-07-01T06:11:41;1.90;;;1.90;;
11510;SDS011;5812;48.864;9.190;2022-07-01T06:14:06;2.23;;;2.23;;
11510;SDS011;5812;48.864;9.190;2022-07-01T06:16:32;2.67;;;2.67;;
11510;SDS011;5812;48.864;9.190;2022-07-01T06:18:57;1.90;;;1.90;;
11510;SDS011;5812;48.864;9.190;2022-07-01T06:21:23;2.57;;;2.57;;
11510;SDS011;5812;48.864;9.190;2022-07-01T06:23:49;2.20;;;2.20;;
11510;SDS011;5812;48.864;9.190;2022-07-01T06:26:14;2.27;;;2.27;;
11510;SDS011;5812;48.864;9.190;2022-07-01T06:28:40;2.07;;;2.07;;
11510;SDS011;5812;48.864;9.190;2022-07-01T06:31:06;2.47;;;2.47;;
11510;SDS011;5812;48.864;9.190;2022-07-01T06:33:32;2.00;;;2.00;;
11510;SDS011;5812;48.864;9.190;2022-07-01T06:35:58;1.90;;;1.90;;
11510;SDS011;5812;48.864;9.190;2022-07-01T06:38:24;2.00;;;2.00;;
11510;SDS011;5812;48.864;9.190;2022-07-01T06:40:50;2.00;;;2.00;;
11510;SDS011;5812;48.864;9.190;2022-07-01T06:43:35;1.67;;;1.67;;
11510;SDS011;5812;48.864;9.190;2022-07-01T06:46:01;1.83;;;1.83;;
11510;SDS011;5812;48.864;9.190;2022-07-01T06:48:27;2.20;;;2.20;;
11510;SDS011;5812;48.864;9.190;2022-07-01T06:50:53;2.07;;;2.07;;
11510;SDS011;5812;48.864;9.190;2022-07-01T06:53:18;2.00;;;2.00;;
11510;SDS011;5812;48.864;9.190;2022-07-01T06:55:44;2.20;;;2.20;;
11510;SDS011;5812;48.864;9.190;2022-07-01T06:58:10;2.00;;;2.00;;
11510;SDS011;5812;48.864;9.190;2022-07-01T07:00:35;1.87;;;1.87;;
11510;SDS011;5812;48.864;9.190;2022-07-01T07:03:01;1.67;;;1.67;;
11510;SDS011;5812;48.864;9.190;2022-07-01T07:05:27;2.00;;;2.00;;
11510;SDS011;5812;48.864;9.190;2022-07-01T07:07:58;2.60;;;2.60;;
11510;SDS011;5812;48.864;9.190;2022-07-01T07:10:23;2.40;;;2.40;;
11510;SDS011;5812;48.864;9.190;2022-07-01T07:12:49;2.23;;;2.23;;
11510;SDS011;5812;48.864;9.190;2022-07-01T07:15:15;1.67;;;1.67;;
11510;SDS011;5812;48.864;9.190;2022-07-01T07:17:41;2.17;;;2.17;;
11510;SDS011;5812;48.864;9.190;2022-07-01T07:20:07;2.20;;;2.20;;
11510;SDS011;5812;48.864;9.190;2022-07-01T07:22:33;1.77;;;1.77;;
11510;SDS011;5812;48.864;9.190;2022-07-01T07:24:59;1.87;;;1.87;;
11510;SDS011;5812;48.864;9.190;2022-07-01T07:27:25;2.13;;;2.13;;
11510;SDS011;5812;48.864;9.190;2022-07-01T07:29:50;2.03;;;2.03;;
11510;SDS011;5812;48.864;9.190;2022-07-01T07:32:16;1.90;;;1.90;;
11510;SDS011;5812;48.864;9.190;2022-07-01T07:34:42;2.03;;;2.03;;
11510;SDS011;5812;48.864;9.190;2022-07-01T07:37:07;1.97;;;1.97;;
11510;SDS011;5812;48.864;9.190;2022-07-01T07:39:33;1.70;;;1.70;;
11510;SDS011;5812;48.864;9.190;2022-07-01T07:41:59;1.87;;;1.87;;
11510;SDS011;5812;48.864;9.190;2022-07-01T07:44:25;1.90;;;1.90;;
11510;SDS011;5812;48.864;9.190;2022-07-01T07:46:51;2.03;;;2.03;;
11510;SDS011;5812;48.864;9.190;2022-07-01T07:49:16;1.90;;;1.90;;
11510;SDS011;5812;48.864;9.190;2022-07-01T07:51:42;2.23;;;2.23;;
11510;SDS011;5812;48.864;9.190;2022-07-01T07:54:07;1.97;;;1.97;;
11510;SDS011;5812;48.864;9.190;2022-07-01T07:56:33;1.97;;;1.97;;
11510;SDS011;5812;48.864;9.190;2022-07-01T07:58:59;2.30;;;2.30;;
11510;SDS011;5812;48.864;9.190;2022-07-01T08:01:24;2.20;;;2.20;;
11510;SDS011;5812;48.864;9.190;2022-07-01T08:03:50;2.57;;;2.57;;
11510;SDS011;5812;48.864;9.190;2022-07-01T08:06:16;2.00;;;2.00;;
11510;SDS011;5812;48.864;9.190;2022-07-01T08:08:42;2.63;;;2.63;;
11510;SDS011;5812;48.864;9.190;2022-07-01T08:11:08;2.07;;;2.07;;
11510;SDS011;5812;48.864;9.190;2022-07-01T08:13:34;1.97;;;1.97;;
11510;SDS011;5812;48.864;9.190;2022-07-01T08:16:00;1.80;;;1.80;;
11510;SDS011;5812;48.864;9.190;2022-07-01T08:18:26;1.77;;;1.77;;
11510;SDS011;5812;48.864;9.190;2022-07-01T08:20:51;2.17;;;2.17;;
11510;SDS011;5812;48.864;9.190;2022-07-01T08:23:20;1.87;;;1.87;;
11510;SDS011;5812;48.864;9.190;2022-07-01T08:25:48;2.23;;;2.23;;
11510;SDS011;5812;48.864;9.190;2022-07-01T08:28:15;2.13;;;2.13;;
11510;SDS011;5812;48.864;9.190;2022-07-01T08:30:41;2.03;;;2.03;;
11510;SDS011;5812;48.864;9.190;2022-07-01T08:33:07;2.27;;;2.27;;
11510;SDS011;5812;48.864;9.190;2022-07-01T08:35:33;1.97;;;1.97;;
11510;SDS011;5812;48.864;9.190;2022-07-01T08:37:59;2.40;;;2.40;;
11510;SDS011;5812;48.864;9.190;2022-07-01T08:40:25;2.87;;;2.87;;
11510;SDS011;5812;48.864;9.190;2022-07-01T08:42:55;2.93;;;2.93;;
11510;SDS011;5812;48.864;9.190;2022-07-01T08:45:25;2.33;;;2.33;;
11510;SDS011;5812;48.864;9.190;2022-07-01T08:47:52;2.50;;;2.50;;
11510;SDS011;5812;48.864;9.190;2022-07-01T08:50:22;3.20;;;3.20;;
11510;SDS011;5812;48.864;9.190;2022-07-01T08:52:49;3.07;;;3.07;;
11510;SDS011;5812;48.864;9.190;2022-07-01T08:55:15;3.20;;;3.20;;
11510;SDS011;5812;48.864;9.190;2022-07-01T08:57:41;3.17;;;3.17;;
11510;SDS011;5812;48.864;9.190;2022-07-01T09:00:07;2.80;;;2.80;;
11510;SDS011;5812;48.864;9.190;2022-07-01T09:05:23;2.67;;;2.67;;
11510;SDS011;5812;48.864;9.190;2022-07-01T09:07:54;2.50;;;2.50;;
11510;SDS011;5812;48.864;9.190;2022-07-01T09:10:25;2.50;;;2.50;;
11510;SDS011;5812;48.864;9.190;2022-07-01T09:12:51;2.70;;;2.70;;
11510;SDS011;5812;48.864;9.190;2022-07-01T09:15:24;2.70;;;2.70;;
11510;SDS011;5812;48.864;9.190;2022-07-01T09:17:50;2.80;;;2.80;;
11510;SDS011;5812;48.864;9.190;2022-07-01T09:20:23;3.03;;;3.03;;
11510;SDS011;5812;48.864;9.190;2022-07-01T09:23:07;3.20;;;3.20;;
11510;SDS011;5812;48.864;9.190;2022-07-01T09:25:39;2.50;;;2.50;;
11510;SDS011;5812;48.864;9.190;2022-07-01T09:28:10;2.10;;;2.10;;
11510;SDS011;5812;48.864;9.190;2022-07-01T09:30:38;1.77;;;1.77;;
11510;SDS011;5812;48.864;9.190;2022-07-01T09:33:06;2.00;;;2.00;;
11510;SDS011;5812;48.864;9.190;2022-07-01T09:35:35;1.80;;;1.80;;
11510;SDS011;5812;48.864;9.190;2022-07-01T09:38:01;1.90;;;1.90;;
11510;SDS011;5812;48.864;9.190;2022-07-01T09:43:36;2.43;;;2.43;;
11510;SDS011;5812;48.864;9.190;2022-07-01T09:46:03;1.90;;;1.90;;
11510;SDS011;5812;48.864;9.190;2022-07-01T09:50:59;1.97;;;1.97;;
11510;SDS011;5812;48.864;9.190;2022-07-01T09:53:25;1.93;;;1.93;;
11510;SDS011;5812;48.864;9.190;2022-07-01T09:55:51;2.03;;;2.03;;
11510;SDS011;5812;48.864;9.190;2022-07-01T09:58:17;2.17;;;2.17;;
11510;SDS011;5812;48.864;9.190;2022-07-01T10:00:44;1.80;;;1.80;;
11510;SDS011;5812;48.864;9.190;2022-07-01T10:03:09;2.10;;;2.10;;
11510;SDS011;5812;48.864;9.190;2022-07-01T10:05:44;1.27;;;1.27;;
11510;SDS011;5812;48.864;9.190;2022-07-01T10:08:29;1.30;;;1.30;;
11510;SDS011;5812;48.864;9.190;2022-07-01T10:13:59;1.70;;;1.70;;
11510;SDS011;5812;48.864;9.190;2022-07-01T10:16:32;1.50;;;1.50;;
11510;SDS011;5812;48.864;9.190;2022-07-01T10:19:05;1.77;;;1.77;;
11510;SDS011;5812;48.864;9.190;2022-07-01T10:21:54;1.40;;;1.40;;
11510;SDS011;5812;48.864;9.190;2022-07-01T10:24:23;1.40;;;1.40;;
11510;SDS011;5812;48.864;9.190;2022-07-01T10:26:50;1.58;;;1.58;;
11510;SDS011;5812;48.864;9.190;2022-07-01T10:32:43;1.08;;;1.08;;
11510;SDS011;5812;48.864;9.190;2022-07-01T10:34:46;1.20;;;1.20;;
11510;SDS011;5812;48.864;9.190;2022-07-01T10:37:13;1.08;;;1.08;;
11510;SDS011;5812;48.864;9.190;2022-07-01T10:40:14;0.80;;;0.80;;
11510;SDS011;5812;48.864;9.190;2022-07-01T10:42:34;0.90;;;0.90;;
11510;SDS011;5812;48.864;9.190;2022-07-01T10:45:20;1.00;;;1.00;;
11510;SDS011;5812;48.864;9.190;2022-07-01T10:47:45;1.10;;;1.10;;
11510;SDS011;5812;48.864;9.190;2022-07-01T10:50:12;1.00;;;1.00;;
11510;SDS011;5812;48.864;9.190;2022-07-01T10:58:37;0.90;;;0.90;;
11510;SDS011;5812;48.864;9.190;2022-07-01T11:01:03;0.80;;;0.80;;
11510;SDS011;5812;48.864;9.190;2022-07-01T11:03:33;0.68;;;0.68;;
11510;SDS011;5812;48.864;9.190;2022-07-01T11:06:04;0.57;;;0.57;;
11510;SDS011;5812;48.864;9.190;2022-07-01T11:08:30;1.00;;;1.00;;
11510;SDS011;5812;48.864;9.190;2022-07-01T11:10:56;0.50;;;0.50;;
11510;SDS011;5812;48.864;9.190;2022-07-01T11:13:26;0.60;;;0.60;;
11510;SDS011;5812;48.864;9.190;2022-07-01T11:15:52;0.77;;;0.77;;
11510;SDS011;5812;48.864;9.190;2022-07-01T11:18:18;0.50;;;0.50;;
11510;SDS011;5812;48.864;9.190;2022-07-01T11:20:44;0.80;;;0.80;;
11510;SDS011;5812;48.864;9.190;2022-07-01T11:23:10;0.70;;;0.70;;
11510;SDS011;5812;48.864;9.190;2022-07-01T11:25:36;0.80;;;0.80;;
11510;SDS011;5812;48.864;9.190;2022-07-01T11:28:02;0.40;;;0.40;;
11510;SDS011;5812;48.864;9.190;2022-07-01T11:30:27;0.80;;;0.80;;
11510;SDS011;5812;48.864;9.190;2022-07-01T11:32:54;0.68;;;0.68;;
11510;SDS011;5812;48.864;9.190;2022-07-01T11:35:26;0.80;;;0.80;;
11510;SDS011;5812;48.864;9.190;2022-07-01T11:38:18;0.70;;;0.70;;
11510;SDS011;5812;48.864;9.190;2022-07-01T11:41:07;0.68;;;0.68;;
11510;SDS011;5812;48.864;9.190;2022-07-01T11:43:41;0.80;;;0.80;;
11510;SDS011;5812;48.864;9.190;2022-07-01T11:46:07;0.70;;;0.70;;
11510;SDS011;5812;48.864;9.190;2022-07-01T11:48:37;0.68;;;0.68;;
11510;SDS011;5812;48.864;9.190;2022-07-01T11:51:05;0.65;;;0.65;;
11510;SDS011;5812;48.864;9.190;2022-07-01T11:53:37;0.70;;;0.70;;
11510;SDS011;5812;48.864;9.190;2022-07-01T11:56:04;0.80;;;0.80;;
11510;SDS011;5812;48.864;9.190;2022-07-01T11:58:47;0.90;;;0.90;;
11510;SDS011;5812;48.864;9.190;2022-07-01T12:01:28;0.70;;;0.70;;
11510;SDS011;5812;48.864;9.190;2022-07-01T12:03:56;0.50;;;0.50;;
11510;SDS011;5812;48.864;9.190;2022-07-01T12:06:23;0.88;;;0.88;;
11510;SDS011;5812;48.864;9.190;2022-07-01T12:08:49;0.70;;;0.70;;
11510;SDS011;5812;48.864;9.190;2022-07-01T12:11:16;0.85;;;0.85;;
11510;SDS011;5812;48.864;9.190;2022-07-01T12:13:43;1.00;;;1.00;;
11510;SDS011;5812;48.864;9.190;2022-07-01T12:16:11;0.70;;;0.70;;
11510;SDS011;5812;48.864;9.190;2022-07-01T12:18:37;0.90;;;0.90;;
11510;SDS011;5812;48.864;9.190;2022-07-01T12:21:03;1.35;;;1.35;;
11510;SDS011;5812;48.864;9.190;2022-07-01T12:23:29;0.88;;;0.88;;
11510;SDS011;5812;48.864;9.190;2022-07-01T12:25:55;0.68;;;0.68;;
11510;SDS011;5812;48.864;9.190;2022-07-01T12:31:26;1.02;;;1.02;;
11510;SDS011;5812;48.864;9.190;2022-07-01T12:33:48;0.88;;;0.88;;
11510;SDS011;5812;48.864;9.190;2022-07-01T12:36:15;0.70;;;0.70;;
11510;SDS011;5812;48.864;9.190;2022-07-01T12:38:41;0.73;;;0.73;;
11510;SDS011;5812;48.864;9.190;2022-07-01T12:41:26;0.60;;;0.60;;
11510;SDS011;5812;48.864;9.190;2022-07-01T12:44:05;0.70;;;0.70;;
11510;SDS011;5812;48.864;9.190;2022-07-01T12:46:44;0.60;;;0.60;;
11510;SDS011;5812;48.864;9.190;2022-07-01T12:49:17;0.60;;;0.60;;
11510;SDS011;5812;48.864;9.190;2022-07-01T12:51:52;0.55;;;0.55;;
11510;SDS011;5812;48.864;9.190;2022-07-01T12:54:35;0.40;;;0.40;;
11510;SDS011;5812;48.864;9.190;2022-07-01T12:57:04;0.80;;;0.80;;
11510;SDS011;5812;48.864;9.190;2022-07-01T12:59:30;0.63;;;0.63;;
11510;SDS011;5812;48.864;9.190;2022-07-01T13:01:55;0.90;;;0.90;;
11510;SDS011;5812;48.864;9.190;2022-07-01T13:04:26;0.60;;;0.60;;
11510;SDS011;5812;48.864;9.190;2022-07-01T13:06:53;0.60;;;0.60;;
11510;SDS011;5812;48.864;9.190;2022-07-01T13:09:18;0.68;;;0.68;;
11510;SDS011;5812;48.864;9.190;2022-07-01T13:11:44;0.80;;;0.80;;
11510;SDS011;5812;48.864;9.190;2022-07-01T13:14:10;0.50;;;0.50;;
11510;SDS011;5812;48.864;9.190;2022-07-01T13:16:36;0.77;;;0.77;;
11510;SDS011;5812;48.864;9.190;2022-07-01T13:19:02;0.90;;;0.90;;
11510;SDS011;5812;48.864;9.190;2022-07-01T13:21:27;0.82;;;0.82;;
11510;SDS011;5812;48.864;9.190;2022-07-01T13:23:54;0.43;;;0.43;;
11510;SDS011;5812;48.864;9.190;2022-07-01T13:26:20;0.60;;;0.60;;
11510;SDS011;5812;48.864;9.190;2022-07-01T13:28:45;0.68;;;0.68;;
11510;SDS011;5812;48.864;9.190;2022-07-01T13:31:11;0.50;;;0.50;;
11510;SDS011;5812;48.864;9.190;2022-07-01T13:33:37;0.50;;;0.50;;
11510;SDS011;5812;48.864;9.190;2022-07-01T13:36:03;0.52;;;0.52;;
11510;SDS011;5812;48.864;9.190;2022-07-01T13:38:29;0.60;;;0.60;;
11510;SDS011;5812;48.864;9.190;2022-07-01T13:40:55;0.85;;;0.85;;
11510;SDS011;5812;48.864;9.190;2022-07-01T13:43:21;0.70;;;0.70;;
11510;SDS011;5812;48.864;9.190;2022-07-01T13:45:46;0.35;;;0.35;;
11510;SDS011;5812;48.864;9.190;2022-07-01T13:48:12;0.60;;;0.60;;
11510;SDS011;5812;48.864;9.190;2022-07-01T13:50:38;0.80;;;0.80;;
11510;SDS011;5812;48.864;9.190;2022-07-01T13:53:04;0.70;;;0.70;;
11510;SDS011;5812;48.864;9.190;2022-07-01T13:55:29;0.77;;;0.77;;
11510;SDS011;5812;48.864;9.190;2022-07-01T13:57:55;0.75;;;0.75;;
11510;SDS011;5812;48.864;9.190;2022-07-01T14:00:20;0.85;;;0.85;;
11510;SDS011;5812;48.864;9.190;2022-07-01T14:02:46;0.75;;;0.75;;
11510;SDS011;5812;48.864;9.190;2022-07-01T14:05:12;1.00;;;1.00;;
11510;SDS011;5812;48.864;9.190;2022-07-01T14:07:37;0.88;;;0.88;;
11510;SDS011;5812;48.864;9.190;2022-07-01T14:10:03;0.80;;;0.80;;
11510;SDS011;5812;48.864;9.190;2022-07-01T14:12:30;1.20;;;1.20;;
11510;SDS011;5812;48.864;9.190;2022-07-01T14:14:55;1.17;;;1.17;;
11510;SDS011;5812;48.864;9.190;2022-07-01T14:17:22;0.82;;;0.82;;
11510;SDS011;5812;48.864;9.190;2022-07-01T14:19:48;0.80;;;0.80;;
11510;SDS011;5812;48.864;9.190;2022-07-01T14:22:13;1.10;;;1.10;;
11510;SDS011;5812;48.864;9.190;2022-07-01T14:24:39;1.10;;;1.10;;
11510;SDS011;5812;48.864;9.190;2022-07-01T14:27:04;1.00;;;1.00;;
11510;SDS011;5812;48.864;9.190;2022-07-01T14:29:30;1.25;;;1.25;;
11510;SDS011;5812;48.864;9.190;2022-07-01T14:31:56;1.30;;;1.30;;
11510;SDS011;5812;48.864;9.190;2022-07-01T14:34:24;0.90;;;0.90;;
11510;SDS011;5812;48.864;9.190;2022-07-01T14:36:50;1.10;;;1.10;;
11510;SDS011;5812;48.864;9.190;2022-07-01T14:39:16;0.98;;;0.98;;
11510;SDS011;5812;48.864;9.190;2022-07-01T14:41:41;1.02;;;1.02;;
11510;SDS011;5812;48.864;9.190;2022-07-01T14:44:07;0.98;;;0.98;;
11510;SDS011;5812;48.864;9.190;2022-07-01T14:46:33;1.00;;;1.00;;
11510;SDS011;5812;48.864;9.190;2022-07-01T14:48:58;0.90;;;0.90;;
11510;SDS011;5812;48.864;9.190;2022-07-01T14:51:24;1.00;;;1.00;;
11510;SDS011;5812;48.864;9.190;2022-07-01T14:53:51;0.88;;;0.88;;
11510;SDS011;5812;48.864;9.190;2022-07-01T14:56:17;0.77;;;0.77;;
11510;SDS011;5812;48.864;9.190;2022-07-01T14:58:42;0.70;;;0.70;;
11510;SDS011;5812;48.864;9.190;2022-07-01T15:01:09;1.20;;;1.20;;
11510;SDS011;5812;48.864;9.190;2022-07-01T15:03:35;1.05;;;1.05;;
11510;SDS011;5812;48.864;9.190;2022-07-01T15:06:01;0.80;;;0.80;;
11510;SDS011;5812;48.864;9.190;2022-07-01T15:08:27;0.65;;;0.65;;
11510;SDS011;5812;48.864;9.190;2022-07-01T15:10:53;0.73;;;0.73;;
11510;SDS011;5812;48.864;9.190;2022-07-01T15:13:27;0.73;;;0.73;;
11510;SDS011;5812;48.864;9.190;2022-07-01T15:15:55;0.70;;;0.70;;
11510;SDS011;5812;48.864;9.190;2022-07-01T15:18:21;0.60;;;0.60;;
11510;SDS011;5812;48.864;9.190;2022-07-01T15:20:47;0.60;;;0.60;;
11510;SDS011;5812;48.864;9.190;2022-07-01T15:23:12;0.77;;;0.77;;
11510;SDS011;5812;48.864;9.190;2022-07-01T15:25:38;0.60;;;0.60;;